sensor_id;sensor_type;location;lat;lon;timestamp;P1;durP1;ratioP1;P2;durP2;ratioP2
21979;SDS011;11154;48.558;9.234;2022-10-03T00:02:06;3.35;;;2.17;;
21979;SDS011;11154;48.558;9.234;2022-10-03T00:06:34;2.53;;;2.20;;
21979;SDS011;11154;48.558;9.234;2022-10-03T00:08:55;2.50;;;2.30;;
21979;SDS011;11154;48.558;9.234;2022-10-03T00:11:09;3.15;;;2.33;;
21979;SDS011;11154;48.558;9.234;2022-10-03T00:13:23;2.78;;;2.20;;
21979;SDS011;11154;48.558;9.234;2022-10-03T00:15:31;2.75;;;2.13;;
21979;SDS011;11154;48.558;9.234;2022-10-03T00:17:40;2.50;;;2.20;;
21979;SDS011;11154;48.558;9.234;2022-10-03T00:19:50;2.20;;;2.00;;
21979;SDS011;11154;48.558;9.234;2022-10-03T00:22:06;2.00;;;1.80;;
21979;SDS011;11154;48.558;9.234;2022-10-03T00:24:22;2.33;;;1.98;;
21979;SDS011;11154;48.558;9.234;2022-10-03T00:26:37;2.90;;;1.83;;
21979;SDS011;11154;48.558;9.234;2022-10-03T00:28:47;2.70;;;2.00;;
21979;SDS011;11154;48.558;9.234;2022-10-03T00:31:02;2.45;;;2.10;;
21979;SDS011;11154;48.558;9.234;2022-10-03T00:33:14;3.08;;;2.00;;
21979;SDS011;11154;48.558;9.234;2022-10-03T00:35:33;2.05;;;1.85;;
21979;SDS011;11154;48.558;9.234;2022-10-03T00:37:45;1.40;;;1.30;;
21979;SDS011;11154;48.558;9.234;2022-10-03T00:48:07;2.72;;;2.05;;
21979;SDS011;11154;48.558;9.234;2022-10-03T00:50:34;2.88;;;2.10;;
21979;SDS011;11154;48.558;9.234;2022-10-03T00:53:02;2.25;;;2.03;;
21979;SDS011;11154;48.558;9.234;2022-10-03T00:55:23;2.47;;;2.25;;
21979;SDS011;11154;48.558;9.234;2022-10-03T00:57:52;2.00;;;1.60;;
21979;SDS011;11154;48.558;9.234;2022-10-03T01:00:17;1.80;;;1.70;;
21979;SDS011;11154;48.558;9.234;2022-10-03T01:02:28;2.30;;;2.10;;
21979;SDS011;11154;48.558;9.234;2022-10-03T01:04:44;2.22;;;2.03;;
21979;SDS011;11154;48.558;9.234;2022-10-03T01:06:58;1.70;;;1.60;;
21979;SDS011;11154;48.558;9.234;2022-10-03T01:09:19;1.50;;;1.40;;
21979;SDS011;11154;48.558;9.234;2022-10-03T01:11:38;2.55;;;2.35;;
21979;SDS011;11154;48.558;9.234;2022-10-03T01:13:53;2.78;;;2.58;;
21979;SDS011;11154;48.558;9.234;2022-10-03T01:16:10;2.25;;;2.05;;
21979;SDS011;11154;48.558;9.234;2022-10-03T01:18:23;1.83;;;1.70;;
21979;SDS011;11154;48.558;9.234;2022-10-03T01:20:39;1.70;;;1.60;;
21979;SDS011;11154;48.558;9.234;2022-10-03T01:23:03;1.90;;;1.63;;
21979;SDS011;11154;48.558;9.234;2022-10-03T01:25:26;2.33;;;2.10;;
21979;SDS011;11154;48.558;9.234;2022-10-03T01:27:42;2.28;;;1.65;;
21979;SDS011;11154;48.558;9.234;2022-10-03T01:30:12;2.70;;;2.50;;
21979;SDS011;11154;48.558;9.234;2022-10-03T01:32:24;3.63;;;3.20;;
21979;SDS011;11154;48.558;9.234;2022-10-03T01:34:34;3.30;;;2.83;;
21979;SDS011;11154;48.558;9.234;2022-10-03T01:36:45;3.22;;;2.92;;
21979;SDS011;11154;48.558;9.234;2022-10-03T01:38:54;3.55;;;2.72;;
21979;SDS011;11154;48.558;9.234;2022-10-03T01:40:58;3.40;;;2.95;;
21979;SDS011;11154;48.558;9.234;2022-10-03T01:43:12;2.83;;;2.63;;
21979;SDS011;11154;48.558;9.234;2022-10-03T01:45:25;2.50;;;2.25;;
21979;SDS011;11154;48.558;9.234;2022-10-03T01:47:34;2.90;;;2.45;;
21979;SDS011;11154;48.558;9.234;2022-10-03T01:49:44;2.53;;;2.33;;
21979;SDS011;11154;48.558;9.234;2022-10-03T01:51:53;2.53;;;2.33;;
21979;SDS011;11154;48.558;9.234;2022-10-03T01:54:05;2.85;;;2.30;;
21979;SDS011;11154;48.558;9.234;2022-10-03T01:56:17;1.10;;;1.02;;
21979;SDS011;11154;48.558;9.234;2022-10-03T01:58:26;2.22;;;1.70;;
21979;SDS011;11154;48.558;9.234;2022-10-03T02:00:39;1.60;;;1.50;;
21979;SDS011;11154;48.558;9.234;2022-10-03T02:02:46;1.20;;;1.10;;
21979;SDS011;11154;48.558;9.234;2022-10-03T02:04:55;1.85;;;1.75;;
21979;SDS011;11154;48.558;9.234;2022-10-03T02:07:06;1.70;;;1.60;;
21979;SDS011;11154;48.558;9.234;2022-10-03T02:09:19;1.88;;;1.77;;
21979;SDS011;11154;48.558;9.234;2022-10-03T02:11:29;2.33;;;1.80;;
21979;SDS011;11154;48.558;9.234;2022-10-03T02:13:38;1.70;;;1.60;;
21979;SDS011;11154;48.558;9.234;2022-10-03T02:15:52;1.90;;;1.67;;
21979;SDS011;11154;48.558;9.234;2022-10-03T02:17:59;1.90;;;1.80;;
21979;SDS011;11154;48.558;9.234;2022-10-03T02:20:17;1.83;;;1.73;;
21979;SDS011;11154;48.558;9.234;2022-10-03T02:22:29;2.03;;;1.92;;
21979;SDS011;11154;48.558;9.234;2022-10-03T02:24:40;1.73;;;1.63;;
21979;SDS011;11154;48.558;9.234;2022-10-03T02:27:04;1.70;;;1.60;;
21979;SDS011;11154;48.558;9.234;2022-10-03T02:29:24;1.85;;;1.75;;
21979;SDS011;11154;48.558;9.234;2022-10-03T02:36:55;3.28;;;2.63;;
21979;SDS011;11154;48.558;9.234;2022-10-03T02:42:11;2.40;;;2.20;;
21979;SDS011;11154;48.558;9.234;2022-10-03T02:47:13;2.50;;;2.30;;
21979;SDS011;11154;48.558;9.234;2022-10-03T02:52:14;2.78;;;2.45;;
21979;SDS011;11154;48.558;9.234;2022-10-03T02:54:52;2.78;;;2.50;;
21979;SDS011;11154;48.558;9.234;2022-10-03T02:57:04;2.92;;;2.63;;
21979;SDS011;11154;48.558;9.234;2022-10-03T03:04:43;2.33;;;2.10;;
21979;SDS011;11154;48.558;9.234;2022-10-03T03:07:14;1.83;;;1.73;;
21979;SDS011;11154;48.558;9.234;2022-10-03T03:09:43;2.22;;;2.03;;
21979;SDS011;11154;48.558;9.234;2022-10-03T03:17:10;1.95;;;1.77;;
21979;SDS011;11154;48.558;9.234;2022-10-03T03:22:00;2.03;;;1.83;;
21979;SDS011;11154;48.558;9.234;2022-10-03T03:24:13;1.50;;;1.40;;
21979;SDS011;11154;48.558;9.234;2022-10-03T03:26:39;1.92;;;1.83;;
21979;SDS011;11154;48.558;9.234;2022-10-03T03:29:11;2.05;;;1.85;;
21979;SDS011;11154;48.558;9.234;2022-10-03T03:31:23;2.30;;;2.10;;
21979;SDS011;11154;48.558;9.234;2022-10-03T03:33:35;2.33;;;2.13;;
21979;SDS011;11154;48.558;9.234;2022-10-03T03:35:50;2.42;;;2.00;;
21979;SDS011;11154;48.558;9.234;2022-10-03T03:38:05;2.10;;;1.95;;
21979;SDS011;11154;48.558;9.234;2022-10-03T03:40:27;2.20;;;2.00;;
21979;SDS011;11154;48.558;9.234;2022-10-03T03:42:42;4.32;;;2.28;;
21979;SDS011;11154;48.558;9.234;2022-10-03T03:45:01;2.65;;;2.40;;
21979;SDS011;11154;48.558;9.234;2022-10-03T03:47:29;2.88;;;2.10;;
21979;SDS011;11154;48.558;9.234;2022-10-03T03:49:50;4.82;;;2.55;;
21979;SDS011;11154;48.558;9.234;2022-10-03T03:52:11;2.65;;;2.45;;
21979;SDS011;11154;48.558;9.234;2022-10-03T03:57:13;3.35;;;2.58;;
21979;SDS011;11154;48.558;9.234;2022-10-03T03:59:34;2.95;;;2.60;;
21979;SDS011;11154;48.558;9.234;2022-10-03T04:01:53;2.83;;;2.63;;
21979;SDS011;11154;48.558;9.234;2022-10-03T04:04:09;3.20;;;2.70;;
21979;SDS011;11154;48.558;9.234;2022-10-03T04:06:24;2.97;;;2.70;;
21979;SDS011;11154;48.558;9.234;2022-10-03T04:08:49;3.10;;;2.80;;
21979;SDS011;11154;48.558;9.234;2022-10-03T04:11:06;3.15;;;2.50;;
21979;SDS011;11154;48.558;9.234;2022-10-03T04:13:35;3.38;;;2.90;;
21979;SDS011;11154;48.558;9.234;2022-10-03T04:15:57;3.20;;;2.85;;
21979;SDS011;11154;48.558;9.234;2022-10-03T04:18:13;2.08;;;1.88;;
21979;SDS011;11154;48.558;9.234;2022-10-03T04:21:00;1.60;;;1.50;;
21979;SDS011;11154;48.558;9.234;2022-10-03T04:23:19;1.60;;;1.48;;
21979;SDS011;11154;48.558;9.234;2022-10-03T04:25:45;1.33;;;1.23;;
21979;SDS011;11154;48.558;9.234;2022-10-03T04:28:02;1.52;;;1.42;;
21979;SDS011;11154;48.558;9.234;2022-10-03T04:30:28;2.30;;;2.08;;
21979;SDS011;11154;48.558;9.234;2022-10-03T04:32:47;2.40;;;2.20;;
21979;SDS011;11154;48.558;9.234;2022-10-03T04:35:03;1.95;;;1.85;;
21979;SDS011;11154;48.558;9.234;2022-10-03T04:37:19;2.35;;;2.15;;
21979;SDS011;11154;48.558;9.234;2022-10-03T04:39:27;2.17;;;1.98;;
21979;SDS011;11154;48.558;9.234;2022-10-03T04:41:39;2.03;;;1.90;;
21979;SDS011;11154;48.558;9.234;2022-10-03T04:43:49;1.70;;;1.60;;
21979;SDS011;11154;48.558;9.234;2022-10-03T04:46:02;1.60;;;1.50;;
21979;SDS011;11154;48.558;9.234;2022-10-03T04:48:17;1.98;;;1.83;;
21979;SDS011;11154;48.558;9.234;2022-10-03T04:50:30;1.70;;;1.60;;
21979;SDS011;11154;48.558;9.234;2022-10-03T04:52:39;1.63;;;1.53;;
21979;SDS011;11154;48.558;9.234;2022-10-03T04:54:46;2.97;;;2.50;;
21979;SDS011;11154;48.558;9.234;2022-10-03T04:57:00;2.28;;;2.08;;
21979;SDS011;11154;48.558;9.234;2022-10-03T04:59:10;2.90;;;2.60;;
21979;SDS011;11154;48.558;9.234;2022-10-03T05:01:30;3.03;;;2.70;;
21979;SDS011;11154;48.558;9.234;2022-10-03T05:03:46;2.47;;;2.28;;
21979;SDS011;11154;48.558;9.234;2022-10-03T05:08:13;3.72;;;3.42;;
21979;SDS011;11154;48.558;9.234;2022-10-03T05:10:42;3.88;;;3.50;;
21979;SDS011;11154;48.558;9.234;2022-10-03T05:12:53;4.47;;;3.85;;
21979;SDS011;11154;48.558;9.234;2022-10-03T05:15:12;6.03;;;3.95;;
21979;SDS011;11154;48.558;9.234;2022-10-03T05:17:23;4.15;;;3.58;;
21979;SDS011;11154;48.558;9.234;2022-10-03T05:19:38;5.13;;;4.43;;
21979;SDS011;11154;48.558;9.234;2022-10-03T05:21:47;4.53;;;4.10;;
21979;SDS011;11154;48.558;9.234;2022-10-03T05:23:57;4.85;;;4.10;;
21979;SDS011;11154;48.558;9.234;2022-10-03T05:26:04;4.70;;;3.92;;
21979;SDS011;11154;48.558;9.234;2022-10-03T05:28:17;5.10;;;4.45;;
21979;SDS011;11154;48.558;9.234;2022-10-03T05:30:28;4.97;;;4.45;;
21979;SDS011;11154;48.558;9.234;2022-10-03T05:32:42;4.90;;;4.28;;
21979;SDS011;11154;48.558;9.234;2022-10-03T05:34:52;5.50;;;4.40;;
21979;SDS011;11154;48.558;9.234;2022-10-03T05:37:14;5.25;;;4.43;;
21979;SDS011;11154;48.558;9.234;2022-10-03T05:41:28;5.57;;;4.97;;
21979;SDS011;11154;48.558;9.234;2022-10-03T05:43:39;4.68;;;4.18;;
21979;SDS011;11154;48.558;9.234;2022-10-03T05:45:47;4.70;;;4.25;;
21979;SDS011;11154;48.558;9.234;2022-10-03T05:47:59;5.55;;;4.55;;
21979;SDS011;11154;48.558;9.234;2022-10-03T05:53:19;5.72;;;4.53;;
21979;SDS011;11154;48.558;9.234;2022-10-03T05:55:36;5.10;;;4.60;;
21979;SDS011;11154;48.558;9.234;2022-10-03T06:10:42;6.13;;;5.53;;
21979;SDS011;11154;48.558;9.234;2022-10-03T06:12:52;6.03;;;5.32;;
21979;SDS011;11154;48.558;9.234;2022-10-03T06:17:51;6.32;;;5.00;;
21979;SDS011;11154;48.558;9.234;2022-10-03T06:20:00;7.88;;;6.25;;
21979;SDS011;11154;48.558;9.234;2022-10-03T06:22:37;5.75;;;5.10;;
21979;SDS011;11154;48.558;9.234;2022-10-03T06:24:57;6.10;;;5.13;;
21979;SDS011;11154;48.558;9.234;2022-10-03T06:40:16;4.55;;;4.15;;
21979;SDS011;11154;48.558;9.234;2022-10-03T06:42:53;5.85;;;4.93;;
21979;SDS011;11154;48.558;9.234;2022-10-03T06:47:58;5.20;;;4.70;;
21979;SDS011;11154;48.558;9.234;2022-10-03T06:52:56;5.38;;;4.88;;
21979;SDS011;11154;48.558;9.234;2022-10-03T06:55:17;8.67;;;6.07;;
21979;SDS011;11154;48.558;9.234;2022-10-03T06:57:46;9.23;;;6.63;;
21979;SDS011;11154;48.558;9.234;2022-10-03T07:02:40;10.65;;;7.40;;
21979;SDS011;11154;48.558;9.234;2022-10-03T07:10:17;10.95;;;7.97;;
21979;SDS011;11154;48.558;9.234;2022-10-03T07:12:35;11.15;;;8.13;;
21979;SDS011;11154;48.558;9.234;2022-10-03T07:15:15;12.32;;;9.07;;
21979;SDS011;11154;48.558;9.234;2022-10-03T07:17:29;16.27;;;12.20;;
21979;SDS011;11154;48.558;9.234;2022-10-03T07:19:48;17.40;;;11.20;;
21979;SDS011;11154;48.558;9.234;2022-10-03T07:22:06;21.67;;;15.48;;
21979;SDS011;11154;48.558;9.234;2022-10-03T07:24:35;10.77;;;8.95;;
21979;SDS011;11154;48.558;9.234;2022-10-03T07:27:11;12.52;;;8.85;;
21979;SDS011;11154;48.558;9.234;2022-10-03T07:29:33;10.75;;;9.15;;
21979;SDS011;11154;48.558;9.234;2022-10-03T07:32:14;13.57;;;10.15;;
21979;SDS011;11154;48.558;9.234;2022-10-03T07:37:06;13.15;;;8.77;;
21979;SDS011;11154;48.558;9.234;2022-10-03T07:42:22;9.70;;;7.85;;
21979;SDS011;11154;48.558;9.234;2022-10-03T07:50:23;12.30;;;7.93;;
21979;SDS011;11154;48.558;9.234;2022-10-03T07:52:56;10.00;;;7.47;;
21979;SDS011;11154;48.558;9.234;2022-10-03T07:55:19;10.40;;;6.88;;
21979;SDS011;11154;48.558;9.234;2022-10-03T08:00:19;10.25;;;7.95;;
21979;SDS011;11154;48.558;9.234;2022-10-03T08:02:29;9.48;;;7.47;;
21979;SDS011;11154;48.558;9.234;2022-10-03T08:04:48;10.40;;;7.57;;
21979;SDS011;11154;48.558;9.234;2022-10-03T08:07:08;10.07;;;6.53;;
21979;SDS011;11154;48.558;9.234;2022-10-03T08:09:44;8.57;;;6.85;;
21979;SDS011;11154;48.558;9.234;2022-10-03T08:12:17;12.15;;;7.28;;
21979;SDS011;11154;48.558;9.234;2022-10-03T08:14:41;11.63;;;7.85;;
21979;SDS011;11154;48.558;9.234;2022-10-03T08:17:05;10.10;;;7.53;;
21979;SDS011;11154;48.558;9.234;2022-10-03T08:19:29;9.05;;;7.20;;
21979;SDS011;11154;48.558;9.234;2022-10-03T08:21:56;10.77;;;7.75;;
21979;SDS011;11154;48.558;9.234;2022-10-03T08:24:15;11.50;;;7.82;;
21979;SDS011;11154;48.558;9.234;2022-10-03T08:26:32;10.95;;;7.80;;
21979;SDS011;11154;48.558;9.234;2022-10-03T08:28:58;14.57;;;8.38;;
21979;SDS011;11154;48.558;9.234;2022-10-03T08:31:22;10.60;;;7.80;;
21979;SDS011;11154;48.558;9.234;2022-10-03T08:33:50;13.68;;;7.47;;
21979;SDS011;11154;48.558;9.234;2022-10-03T08:38:47;14.02;;;9.07;;
21979;SDS011;11154;48.558;9.234;2022-10-03T08:43:48;14.63;;;9.50;;
21979;SDS011;11154;48.558;9.234;2022-10-03T08:46:23;13.05;;;8.82;;
21979;SDS011;11154;48.558;9.234;2022-10-03T08:54:02;10.18;;;8.05;;
21979;SDS011;11154;48.558;9.234;2022-10-03T08:56:13;10.70;;;7.45;;
21979;SDS011;11154;48.558;9.234;2022-10-03T08:58:22;11.45;;;7.57;;
21979;SDS011;11154;48.558;9.234;2022-10-03T09:01:10;9.43;;;7.65;;
21979;SDS011;11154;48.558;9.234;2022-10-03T09:03:32;8.93;;;7.45;;
21979;SDS011;11154;48.558;9.234;2022-10-03T09:08:34;12.25;;;7.60;;
21979;SDS011;11154;48.558;9.234;2022-10-03T09:10:59;13.55;;;7.47;;
21979;SDS011;11154;48.558;9.234;2022-10-03T09:15:37;14.13;;;7.25;;
21979;SDS011;11154;48.558;9.234;2022-10-03T09:18:37;12.35;;;7.53;;
21979;SDS011;11154;48.558;9.234;2022-10-03T09:23:40;10.02;;;7.25;;
21979;SDS011;11154;48.558;9.234;2022-10-03T09:26:07;10.35;;;7.50;;
21979;SDS011;11154;48.558;9.234;2022-10-03T09:28:35;13.70;;;7.68;;
21979;SDS011;11154;48.558;9.234;2022-10-03T09:30:51;13.48;;;7.95;;
21979;SDS011;11154;48.558;9.234;2022-10-03T09:41:29;10.88;;;7.28;;
21979;SDS011;11154;48.558;9.234;2022-10-03T09:44:06;12.52;;;8.35;;
21979;SDS011;11154;48.558;9.234;2022-10-03T09:46:42;11.45;;;7.75;;
21979;SDS011;11154;48.558;9.234;2022-10-03T09:51:46;10.00;;;6.43;;
21979;SDS011;11154;48.558;9.234;2022-10-03T10:01:59;9.73;;;5.97;;
21979;SDS011;11154;48.558;9.234;2022-10-03T10:04:19;10.32;;;6.38;;
21979;SDS011;11154;48.558;9.234;2022-10-03T10:09:42;12.70;;;7.10;;
21979;SDS011;11154;48.558;9.234;2022-10-03T10:12:01;8.63;;;5.85;;
21979;SDS011;11154;48.558;9.234;2022-10-03T10:14:35;9.27;;;6.05;;
21979;SDS011;11154;48.558;9.234;2022-10-03T10:16:54;8.07;;;6.55;;
21979;SDS011;11154;48.558;9.234;2022-10-03T10:19:17;10.02;;;6.00;;
21979;SDS011;11154;48.558;9.234;2022-10-03T10:21:39;9.73;;;5.43;;
21979;SDS011;11154;48.558;9.234;2022-10-03T10:23:54;8.80;;;4.95;;
21979;SDS011;11154;48.558;9.234;2022-10-03T10:31:37;8.80;;;6.45;;
21979;SDS011;11154;48.558;9.234;2022-10-03T10:34:27;10.95;;;7.10;;
21979;SDS011;11154;48.558;9.234;2022-10-03T10:42:44;8.48;;;4.63;;
21979;SDS011;11154;48.558;9.234;2022-10-03T10:48:04;10.57;;;4.93;;
21979;SDS011;11154;48.558;9.234;2022-10-03T10:50:51;7.10;;;4.97;;
21979;SDS011;11154;48.558;9.234;2022-10-03T11:01:16;8.27;;;3.90;;
21979;SDS011;11154;48.558;9.234;2022-10-03T11:03:53;9.23;;;4.13;;
21979;SDS011;11154;48.558;9.234;2022-10-03T11:06:23;8.13;;;3.85;;
21979;SDS011;11154;48.558;9.234;2022-10-03T11:11:39;7.20;;;3.95;;
21979;SDS011;11154;48.558;9.234;2022-10-03T11:14:07;9.00;;;4.13;;
21979;SDS011;11154;48.558;9.234;2022-10-03T11:27:17;6.05;;;2.65;;
21979;SDS011;11154;48.558;9.234;2022-10-03T11:30:02;5.85;;;2.95;;
21979;SDS011;11154;48.558;9.234;2022-10-03T11:35:16;6.35;;;3.03;;
21979;SDS011;11154;48.558;9.234;2022-10-03T11:37:40;8.48;;;3.30;;
21979;SDS011;11154;48.558;9.234;2022-10-03T11:39:46;5.90;;;2.85;;
21979;SDS011;11154;48.558;9.234;2022-10-03T11:41:55;5.57;;;2.70;;
21979;SDS011;11154;48.558;9.234;2022-10-03T11:44:05;6.38;;;2.58;;
21979;SDS011;11154;48.558;9.234;2022-10-03T11:46:21;8.10;;;2.72;;
21979;SDS011;11154;48.558;9.234;2022-10-03T11:48:35;6.82;;;2.40;;
21979;SDS011;11154;48.558;9.234;2022-10-03T11:50:43;4.35;;;2.15;;
21979;SDS011;11154;48.558;9.234;2022-10-03T11:52:53;6.25;;;2.70;;
21979;SDS011;11154;48.558;9.234;2022-10-03T11:55:20;5.40;;;2.65;;
21979;SDS011;11154;48.558;9.234;2022-10-03T11:57:31;6.32;;;2.75;;
21979;SDS011;11154;48.558;9.234;2022-10-03T11:59:43;8.02;;;2.70;;
21979;SDS011;11154;48.558;9.234;2022-10-03T12:01:58;5.75;;;3.13;;
21979;SDS011;11154;48.558;9.234;2022-10-03T12:04:09;6.72;;;3.17;;
21979;SDS011;11154;48.558;9.234;2022-10-03T12:06:24;7.28;;;3.28;;
21979;SDS011;11154;48.558;9.234;2022-10-03T12:08:57;7.93;;;3.03;;
21979;SDS011;11154;48.558;9.234;2022-10-03T12:11:15;8.43;;;3.33;;
21979;SDS011;11154;48.558;9.234;2022-10-03T12:13:26;7.95;;;4.55;;
21979;SDS011;11154;48.558;9.234;2022-10-03T12:15:36;6.72;;;3.35;;
21979;SDS011;11154;48.558;9.234;2022-10-03T12:17:42;9.70;;;3.35;;
21979;SDS011;11154;48.558;9.234;2022-10-03T12:19:53;8.15;;;2.63;;
21979;SDS011;11154;48.558;9.234;2022-10-03T12:22:05;10.20;;;3.08;;
21979;SDS011;11154;48.558;9.234;2022-10-03T12:24:22;7.35;;;3.58;;
21979;SDS011;11154;48.558;9.234;2022-10-03T12:26:28;6.32;;;3.42;;
21979;SDS011;11154;48.558;9.234;2022-10-03T12:28:42;5.40;;;3.05;;
21979;SDS011;11154;48.558;9.234;2022-10-03T12:30:52;7.13;;;3.15;;
21979;SDS011;11154;48.558;9.234;2022-10-03T12:33:06;7.65;;;3.15;;
21979;SDS011;11154;48.558;9.234;2022-10-03T12:35:25;5.28;;;2.90;;
21979;SDS011;11154;48.558;9.234;2022-10-03T12:37:44;9.88;;;2.42;;
21979;SDS011;11154;48.558;9.234;2022-10-03T12:40:00;6.97;;;3.20;;
21979;SDS011;11154;48.558;9.234;2022-10-03T12:42:11;5.85;;;2.97;;
21979;SDS011;11154;48.558;9.234;2022-10-03T12:44:28;4.78;;;2.47;;
21979;SDS011;11154;48.558;9.234;2022-10-03T12:46:43;5.97;;;2.40;;
21979;SDS011;11154;48.558;9.234;2022-10-03T12:48:55;4.57;;;2.45;;
21979;SDS011;11154;48.558;9.234;2022-10-03T12:51:05;5.50;;;2.33;;
21979;SDS011;11154;48.558;9.234;2022-10-03T12:53:21;7.05;;;2.78;;
21979;SDS011;11154;48.558;9.234;2022-10-03T12:55:28;7.22;;;2.90;;
21979;SDS011;11154;48.558;9.234;2022-10-03T12:57:43;5.47;;;2.47;;
21979;SDS011;11154;48.558;9.234;2022-10-03T12:59:49;10.00;;;3.50;;
21979;SDS011;11154;48.558;9.234;2022-10-03T13:04:26;6.57;;;2.67;;
21979;SDS011;11154;48.558;9.234;2022-10-03T13:06:49;6.78;;;2.53;;
21979;SDS011;11154;48.558;9.234;2022-10-03T13:09:07;6.55;;;2.38;;
21979;SDS011;11154;48.558;9.234;2022-10-03T13:11:20;4.28;;;2.55;;
21979;SDS011;11154;48.558;9.234;2022-10-03T13:13:30;6.25;;;2.67;;
21979;SDS011;11154;48.558;9.234;2022-10-03T13:15:39;7.40;;;2.50;;
21979;SDS011;11154;48.558;9.234;2022-10-03T13:17:47;6.13;;;2.70;;
21979;SDS011;11154;48.558;9.234;2022-10-03T13:19:57;7.03;;;3.22;;
21979;SDS011;11154;48.558;9.234;2022-10-03T13:22:03;7.68;;;3.00;;
21979;SDS011;11154;48.558;9.234;2022-10-03T13:24:27;5.97;;;2.67;;
21979;SDS011;11154;48.558;9.234;2022-10-03T13:26:37;7.60;;;2.67;;
21979;SDS011;11154;48.558;9.234;2022-10-03T13:29:02;7.35;;;2.40;;
21979;SDS011;11154;48.558;9.234;2022-10-03T13:31:23;7.72;;;2.42;;
21979;SDS011;11154;48.558;9.234;2022-10-03T13:33:30;6.00;;;2.10;;
21979;SDS011;11154;48.558;9.234;2022-10-03T13:35:38;6.50;;;2.75;;
21979;SDS011;11154;48.558;9.234;2022-10-03T13:38:03;6.25;;;2.50;;
21979;SDS011;11154;48.558;9.234;2022-10-03T13:40:22;5.00;;;2.72;;
21979;SDS011;11154;48.558;9.234;2022-10-03T13:42:30;6.40;;;2.60;;
21979;SDS011;11154;48.558;9.234;2022-10-03T13:44:39;4.80;;;2.47;;
21979;SDS011;11154;48.558;9.234;2022-10-03T13:46:48;4.97;;;2.40;;
21979;SDS011;11154;48.558;9.234;2022-10-03T13:48:55;5.90;;;2.70;;
21979;SDS011;11154;48.558;9.234;2022-10-03T13:51:01;7.55;;;2.83;;
21979;SDS011;11154;48.558;9.234;2022-10-03T13:53:08;7.03;;;2.80;;
21979;SDS011;11154;48.558;9.234;2022-10-03T13:55:17;5.35;;;2.50;;
21979;SDS011;11154;48.558;9.234;2022-10-03T13:57:29;5.53;;;2.65;;
21979;SDS011;11154;48.558;9.234;2022-10-03T13:59:40;5.90;;;2.25;;
21979;SDS011;11154;48.558;9.234;2022-10-03T14:01:52;4.57;;;2.70;;
21979;SDS011;11154;48.558;9.234;2022-10-03T14:04:08;6.45;;;2.67;;
21979;SDS011;11154;48.558;9.234;2022-10-03T14:06:28;6.68;;;2.90;;
21979;SDS011;11154;48.558;9.234;2022-10-03T14:11:31;9.18;;;2.97;;
21979;SDS011;11154;48.558;9.234;2022-10-03T14:13:42;5.95;;;3.10;;
21979;SDS011;11154;48.558;9.234;2022-10-03T14:15:53;7.25;;;3.30;;
21979;SDS011;11154;48.558;9.234;2022-10-03T14:18:05;5.50;;;2.60;;
21979;SDS011;11154;48.558;9.234;2022-10-03T14:20:19;7.30;;;2.78;;
21979;SDS011;11154;48.558;9.234;2022-10-03T14:22:28;6.87;;;3.23;;
21979;SDS011;11154;48.558;9.234;2022-10-03T14:24:41;6.82;;;2.85;;
21979;SDS011;11154;48.558;9.234;2022-10-03T14:26:58;7.70;;;3.20;;
21979;SDS011;11154;48.558;9.234;2022-10-03T14:29:12;8.90;;;3.42;;
21979;SDS011;11154;48.558;9.234;2022-10-03T14:31:22;8.38;;;2.95;;
21979;SDS011;11154;48.558;9.234;2022-10-03T14:33:31;7.88;;;3.17;;
21979;SDS011;11154;48.558;9.234;2022-10-03T14:35:41;7.93;;;3.20;;
21979;SDS011;11154;48.558;9.234;2022-10-03T14:37:55;7.80;;;2.85;;
21979;SDS011;11154;48.558;9.234;2022-10-03T14:40:04;8.25;;;3.22;;
21979;SDS011;11154;48.558;9.234;2022-10-03T14:42:23;8.98;;;2.90;;
21979;SDS011;11154;48.558;9.234;2022-10-03T14:44:34;10.93;;;3.05;;
21979;SDS011;11154;48.558;9.234;2022-10-03T14:46:41;7.22;;;2.80;;
21979;SDS011;11154;48.558;9.234;2022-10-03T14:48:48;7.65;;;3.03;;
21979;SDS011;11154;48.558;9.234;2022-10-03T14:50:52;8.82;;;3.03;;
21979;SDS011;11154;48.558;9.234;2022-10-03T14:53:02;9.27;;;3.00;;
21979;SDS011;11154;48.558;9.234;2022-10-03T14:55:10;6.35;;;2.63;;
21979;SDS011;11154;48.558;9.234;2022-10-03T14:57:20;10.57;;;3.80;;
21979;SDS011;11154;48.558;9.234;2022-10-03T14:59:29;6.50;;;3.03;;
21979;SDS011;11154;48.558;9.234;2022-10-03T15:01:34;7.53;;;2.80;;
21979;SDS011;11154;48.558;9.234;2022-10-03T15:03:37;4.82;;;2.65;;
21979;SDS011;11154;48.558;9.234;2022-10-03T15:05:50;7.07;;;2.95;;
21979;SDS011;11154;48.558;9.234;2022-10-03T15:07:57;5.53;;;2.83;;
21979;SDS011;11154;48.558;9.234;2022-10-03T15:10:00;7.95;;;2.95;;
21979;SDS011;11154;48.558;9.234;2022-10-03T15:12:05;7.65;;;2.67;;
21979;SDS011;11154;48.558;9.234;2022-10-03T15:14:13;6.53;;;2.42;;
21979;SDS011;11154;48.558;9.234;2022-10-03T15:16:16;4.75;;;2.38;;
21979;SDS011;11154;48.558;9.234;2022-10-03T15:18:22;5.70;;;2.22;;
21979;SDS011;11154;48.558;9.234;2022-10-03T15:20:25;5.80;;;2.53;;
21979;SDS011;11154;48.558;9.234;2022-10-03T15:22:31;7.25;;;2.53;;
21979;SDS011;11154;48.558;9.234;2022-10-03T15:24:34;7.82;;;2.83;;
21979;SDS011;11154;48.558;9.234;2022-10-03T15:26:36;8.25;;;2.80;;
21979;SDS011;11154;48.558;9.234;2022-10-03T15:28:40;6.88;;;2.78;;
21979;SDS011;11154;48.558;9.234;2022-10-03T15:30:46;6.50;;;2.60;;
21979;SDS011;11154;48.558;9.234;2022-10-03T15:32:52;5.00;;;2.42;;
21979;SDS011;11154;48.558;9.234;2022-10-03T15:34:59;5.72;;;2.40;;
21979;SDS011;11154;48.558;9.234;2022-10-03T15:37:03;7.50;;;2.55;;
21979;SDS011;11154;48.558;9.234;2022-10-03T15:39:15;7.40;;;2.70;;
21979;SDS011;11154;48.558;9.234;2022-10-03T15:41:20;7.33;;;2.37;;
21979;SDS011;11154;48.558;9.234;2022-10-03T15:43:30;6.93;;;2.83;;
21979;SDS011;11154;48.558;9.234;2022-10-03T15:45:33;8.02;;;3.05;;
21979;SDS011;11154;48.558;9.234;2022-10-03T15:47:40;5.47;;;2.50;;
21979;SDS011;11154;48.558;9.234;2022-10-03T15:49:46;4.93;;;2.45;;
21979;SDS011;11154;48.558;9.234;2022-10-03T15:51:53;5.50;;;2.65;;
21979;SDS011;11154;48.558;9.234;2022-10-03T15:53:58;5.97;;;2.28;;
21979;SDS011;11154;48.558;9.234;2022-10-03T15:56:05;5.70;;;2.22;;
21979;SDS011;11154;48.558;9.234;2022-10-03T15:58:13;8.48;;;2.30;;
21979;SDS011;11154;48.558;9.234;2022-10-03T16:00:20;6.47;;;2.80;;
21979;SDS011;11154;48.558;9.234;2022-10-03T16:02:26;7.38;;;2.38;;
21979;SDS011;11154;48.558;9.234;2022-10-03T16:04:35;7.43;;;2.88;;
21979;SDS011;11154;48.558;9.234;2022-10-03T16:06:42;6.20;;;2.45;;
21979;SDS011;11154;48.558;9.234;2022-10-03T16:08:53;5.55;;;2.60;;
21979;SDS011;11154;48.558;9.234;2022-10-03T16:11:01;6.25;;;2.90;;
21979;SDS011;11154;48.558;9.234;2022-10-03T16:13:13;5.22;;;2.40;;
21979;SDS011;11154;48.558;9.234;2022-10-03T16:15:26;5.80;;;2.55;;
21979;SDS011;11154;48.558;9.234;2022-10-03T16:17:40;7.22;;;2.72;;
21979;SDS011;11154;48.558;9.234;2022-10-03T16:19:49;4.97;;;2.47;;
21979;SDS011;11154;48.558;9.234;2022-10-03T16:21:54;8.02;;;2.60;;
21979;SDS011;11154;48.558;9.234;2022-10-03T16:24:05;6.95;;;2.60;;
21979;SDS011;11154;48.558;9.234;2022-10-03T16:26:17;4.47;;;2.50;;
21979;SDS011;11154;48.558;9.234;2022-10-03T16:28:24;7.75;;;2.90;;
21979;SDS011;11154;48.558;9.234;2022-10-03T16:30:34;7.50;;;2.90;;
21979;SDS011;11154;48.558;9.234;2022-10-03T16:32:43;5.72;;;2.70;;
21979;SDS011;11154;48.558;9.234;2022-10-03T16:36:53;8.50;;;3.08;;
21979;SDS011;11154;48.558;9.234;2022-10-03T16:38:57;7.00;;;2.95;;
21979;SDS011;11154;48.558;9.234;2022-10-03T16:41:01;8.27;;;3.20;;
21979;SDS011;11154;48.558;9.234;2022-10-03T16:43:05;7.10;;;3.00;;
21979;SDS011;11154;48.558;9.234;2022-10-03T16:45:17;7.10;;;2.92;;
21979;SDS011;11154;48.558;9.234;2022-10-03T16:47:29;6.30;;;2.50;;